AGGH/HIR METAR and TAF weather

Enter ICAO airport designator
Station Type Date Time Source
AGGH METAR 2019/04/25 22:00 UTC NOAA

AGGH 252200Z 14005KT 9999 FEW018 FEW019CB 31/26 Q1008


Station Type Date Time Source
AGGH Decoded METAR 2019/04/25 22:00 UTC NOAA

Honiara / Henderson, Solomon Islands (AGGH) 09-25S 160-03E 9M
Apr 25, 2019 - 06:00 PM EDT / 2019.04.25 2200 UTC
Wind: from the SE (140 degrees) at 6 MPH (5 KT):0
Visibility: greater than 7 mile(s):0
Sky conditions: mostly clear
Weather: Cumulonimbus clouds observed
Temperature: 87 F (31 C)
Heat index: 99.7 F (37.6 C):1
Dew Point: 78 F (26 C)
Relative Humidity: 74%
Pressure (altimeter): 29.77 in. Hg (1008 hPa)
ob: AGGH 252200Z 14005KT 9999 FEW018 FEW019CB 31/26 Q1008
cycle: 22

Station Type Date Time Source
AGGH TAF 2019/04/25 18:15 UTC NOAA

TAF TAF AGGH 251710Z 2518/2618 02010KT 9999 SCT019 PROB30 INTER 2602/2606 5000 TSSH BKN017 FEW018CB T 24 26 30 31 Q 1007 1009 1009 1007

Example: see airport list